Time;durP1;ratioP1;P1;durP2;ratioP2;P2;SDS_P1;SDS_P2;PMS_P1;PMS_P2;Temp;Humidity;BMP_temperature;BMP_pressure;BME280_temperature;BME280_humidity;BME280_pressure;Samples;Min_cycle;Max_cycle;Signal;HPM_P1;HPM_P2
2021/06/13 00:02:04;;;;;;;5.95;3.22;;;;;;;18.30;75.65;101621.22;5094307;28;20028;-84
2021/06/13 00:04:30;;;;;;;7.40;3.40;;;;;;;18.21;75.82;101620.16;5094947;28;20032;-84
2021/06/13 00:06:56;;;;;;;9.18;3.15;;;;;;;18.17;76.28;101608.09;5094176;28;20753;-84
2021/06/13 00:09:21;;;;;;;9.20;3.60;;;;;;;18.20;76.02;101608.66;5094343;28;20063;-84
2021/06/13 00:11:48;;;;;;;7.05;3.45;;;;;;;18.24;75.61;101619.88;5094363;28;20393;-84
2021/06/13 00:14:15;;;;;;;6.93;3.38;;;;;;;18.13;76.34;101622.59;5093085;28;20016;-84
2021/06/13 00:16:40;;;;;;;10.95;3.03;;;;;;;18.20;75.70;101623.78;5093986;28;20031;-84
2021/06/13 00:19:06;;;;;;;7.18;3.00;;;;;;;18.05;75.86;101628.53;5094207;28;20381;-84
2021/06/13 00:21:31;;;;;;;5.00;3.13;;;;;;;18.06;75.65;101626.69;5094058;28;20025;-84
2021/06/13 00:23:57;;;;;;;5.35;3.22;;;;;;;18.03;76.03;101633.13;5094045;28;20028;-85
2021/06/13 00:26:22;;;;;;;6.35;3.15;;;;;;;17.99;76.34;101627.19;5092371;28;20553;-85
2021/06/13 00:28:48;;;;;;;4.60;3.30;;;;;;;17.99;76.33;101631.66;5093595;28;20443;-85
2021/06/13 00:31:13;;;;;;;7.72;2.88;;;;;;;18.08;75.48;101630.91;5093463;28;20032;-85
2021/06/13 00:33:38;;;;;;;8.38;3.40;;;;;;;18.07;76.82;101623.06;5093609;28;20036;-85
2021/06/13 00:36:04;;;;;;;7.13;3.30;;;;;;;17.92;76.67;101622.50;5094062;28;20016;-84
2021/06/13 00:38:29;;;;;;;6.50;3.38;;;;;;;18.11;76.62;101622.72;5094009;28;20474;-85
2021/06/13 00:40:55;;;;;;;7.00;3.53;;;;;;;18.11;75.26;101622.72;5093369;28;20028;-84
2021/06/13 00:43:22;;;;;;;5.25;2.97;;;;;;;18.08;74.17;101630.91;5093818;28;20073;-85
2021/06/13 00:45:47;;;;;;;6.70;2.90;;;;;;;17.92;75.72;101625.16;5093748;28;20024;-84
2021/06/13 00:48:13;;;;;;;4.70;2.65;;;;;;;17.93;75.17;101625.03;5093542;28;20112;-84
2021/06/13 00:50:43;;;;;;;7.97;3.65;;;;;;;17.99;75.76;101627.19;5093303;28;20032;-84
2021/06/13 00:53:09;;;;;;;5.80;3.17;;;;;;;18.00;75.30;101630.69;5093692;28;20035;-85
2021/06/13 00:55:36;;;;;;;4.90;3.10;;;;;;;17.78;77.00;101627.06;5093659;28;20032;-84
2021/06/13 00:58:03;;;;;;;6.20;3.75;;;;;;;17.77;77.55;101632.47;5093321;28;20035;-85
2021/06/13 01:00:29;;;;;;;9.57;3.83;;;;;;;17.76;77.54;101631.66;5092972;28;20367;-85
2021/06/13 01:02:56;;;;;;;6.45;3.33;;;;;;;17.67;77.11;101627.03;5092895;28;20034;-85
2021/06/13 01:05:22;;;;;;;6.65;3.70;;;;;;;17.69;77.84;101632.25;5093588;28;20090;-84
2021/06/13 01:08:11;;;;;;;6.57;3.65;;;;;;;17.62;78.06;101635.38;5093132;28;20021;-84
2021/06/13 01:11:12;;;;;;;6.72;3.15;;;;;;;17.66;78.47;101630.69;5092802;28;20107;-85
2021/06/13 01:13:41;;;;;;;7.07;3.92;;;;;;;17.60;78.32;101634.66;5092401;28;20032;-85
2021/06/13 01:16:25;;;;;;;8.07;3.25;;;;;;;17.18;78.90;101646.78;5093216;28;20077;-84
2021/06/13 01:19:02;;;;;;;6.18;3.25;;;;;;;17.24;78.70;101646.34;5092962;28;20031;-84
2021/06/13 01:21:54;;;;;;;5.47;3.22;;;;;;;17.25;79.50;101648.84;5092364;28;20078;-84
2021/06/13 01:24:37;;;;;;;7.25;3.67;;;;;;;17.22;79.91;101645.59;5092881;28;20031;-85
2021/06/13 01:27:07;;;;;;;4.80;3.72;;;;;;;17.35;79.87;101643.69;5092777;28;20119;-85
2021/06/13 01:29:38;;;;;;;7.50;3.67;;;;;;;17.27;79.07;101639.94;5092681;28;20024;-85
2021/06/13 01:32:08;;;;;;;10.88;3.83;;;;;;;17.22;79.85;101637.63;5092359;28;20035;-84
2021/06/13 01:34:39;;;;;;;4.82;3.67;;;;;;;17.28;80.12;101637.16;5092305;28;20028;-85
2021/06/13 01:37:08;;;;;;;6.90;3.67;;;;;;;17.60;77.59;101641.78;5092735;28;20040;-84
2021/06/13 01:39:38;;;;;;;8.15;3.70;;;;;;;17.54;76.13;101642.28;5092551;28;20035;-84
2021/06/13 01:42:04;;;;;;;6.10;3.30;;;;;;;17.63;77.05;101637.09;5091222;28;20040;-85
2021/06/13 01:44:31;;;;;;;7.18;4.20;;;;;;;17.77;75.64;101640.44;5092476;28;20026;-85
2021/06/13 01:47:02;;;;;;;6.80;3.85;;;;;;;17.84;75.73;101634.56;5092704;28;20355;-84
2021/06/13 01:49:28;;;;;;;8.80;3.78;;;;;;;17.90;75.93;101632.41;5092391;28;20081;-85
2021/06/13 01:51:54;;;;;;;8.02;3.63;;;;;;;17.87;75.25;101625.53;5092054;28;20028;-84
2021/06/13 01:54:20;;;;;;;6.40;3.90;;;;;;;17.55;77.63;101625.34;5092199;28;20121;-85
2021/06/13 01:56:50;;;;;;;8.75;4.70;;;;;;;17.61;76.70;101625.75;5092213;28;20024;-84
2021/06/13 01:59:17;;;;;;;8.48;4.00;;;;;;;17.41;77.79;101626.44;5092308;28;20028;-85
2021/06/13 02:01:44;;;;;;;9.68;3.70;;;;;;;17.74;75.90;101622.94;5091961;28;20028;-84
2021/06/13 02:04:11;;;;;;;7.43;3.92;;;;;;;17.69;76.24;101624.28;5092350;28;20031;-85
2021/06/13 02:06:42;;;;;;;8.95;4.65;;;;;;;17.73;76.37;101621.28;5092150;28;20027;-84
2021/06/13 02:09:08;;;;;;;8.63;4.10;;;;;;;17.68;76.77;101618.13;5090831;28;20028;-84
2021/06/13 02:11:34;;;;;;;6.03;4.30;;;;;;;17.65;76.98;101621.00;5091576;28;20016;-85
2021/06/13 02:14:02;;;;;;;6.68;4.13;;;;;;;17.62;78.06;101623.94;5092132;28;20480;-85
2021/06/13 02:16:29;;;;;;;6.45;3.95;;;;;;;17.45;78.53;101623.41;5091908;28;20020;-84
2021/06/13 02:18:57;;;;;;;6.75;3.65;;;;;;;17.38;78.92;101626.69;5092150;28;20027;-85
2021/06/13 02:21:24;;;;;;;6.63;3.28;;;;;;;17.42;78.55;101626.31;5091649;28;20066;-85
2021/06/13 02:23:50;;;;;;;9.38;4.20;;;;;;;17.45;78.61;101627.88;5091980;28;20020;-85
2021/06/13 02:26:18;;;;;;;7.60;3.85;;;;;;;17.44;79.06;101616.44;5091855;28;20047;-85
2021/06/13 02:28:51;;;;;;;6.00;3.72;;;;;;;17.41;78.98;101632.56;5092207;28;20025;-85
2021/06/13 02:31:19;;;;;;;8.07;4.28;;;;;;;17.37;79.19;101625.81;5091505;28;20032;-85
2021/06/13 02:33:46;;;;;;;6.40;4.00;;;;;;;17.24;80.47;101627.75;5091943;28;20028;-84
2021/06/13 02:36:12;;;;;;;6.90;3.90;;;;;;;17.41;79.38;101642.38;5091947;28;20048;-85
2021/06/13 02:38:38;;;;;;;7.40;4.80;;;;;;;17.41;79.20;101645.84;5091724;28;20067;-85
2021/06/13 02:41:04;;;;;;;7.22;3.78;;;;;;;17.35;79.71;101643.69;5091293;28;20465;-85
2021/06/13 02:43:30;;;;;;;9.50;4.28;;;;;;;17.48;79.44;101646.25;5091620;28;20033;-85
2021/06/13 02:45:55;;;;;;;7.55;3.90;;;;;;;17.54;79.26;101643.09;5091846;28;20024;-85
2021/06/13 02:48:21;;;;;;;8.80;3.63;;;;;;;17.60;78.50;101647.09;5091866;28;20028;-85
2021/06/13 02:50:49;;;;;;;10.80;4.40;;;;;;;17.56;78.56;101648.31;5091312;28;20052;-85
2021/06/13 02:53:45;;;;;;;7.85;4.28;;;;;;;17.55;79.40;101649.25;5091749;28;20104;-85
2021/06/13 02:56:31;;;;;;;8.90;3.53;;;;;;;17.56;79.00;101640.34;5091730;28;20032;-85
2021/06/13 02:59:27;;;;;;;5.07;3.70;;;;;;;17.50;78.21;101638.16;5091692;28;20028;-85
2021/06/13 03:01:54;;;;;;;8.23;4.35;;;;;;;17.39;78.01;101642.47;5088477;28;20040;-85
2021/06/13 03:04:22;;;;;;;8.70;4.93;;;;;;;17.37;78.24;101647.06;5091595;28;20024;-85
2021/06/13 03:06:54;;;;;;;6.78;4.65;;;;;;;17.33;79.16;101653.56;5091928;28;20107;-85
2021/06/13 03:09:21;;;;;;;6.55;4.18;;;;;;;17.31;79.15;101646.69;5091545;28;20024;-85
2021/06/13 03:11:48;;;;;;;7.38;4.20;;;;;;;17.22;78.98;101653.56;5091297;28;20393;-85
2021/06/13 03:14:15;;;;;;;6.45;4.22;;;;;;;17.24;79.68;101656.94;5092145;28;20088;-85
2021/06/13 03:16:42;;;;;;;5.53;4.05;;;;;;;17.21;79.80;101657.16;5091340;28;20390;-85
2021/06/13 03:19:09;;;;;;;6.28;4.65;;;;;;;17.21;79.72;101657.16;5090146;28;20028;-85
2021/06/13 03:21:36;;;;;;;7.15;3.97;;;;;;;17.27;79.96;101659.34;5089845;28;20035;-85
2021/06/13 03:24:02;;;;;;;5.63;3.90;;;;;;;17.26;79.76;101652.38;5091456;28;20390;-85
2021/06/13 03:26:30;;;;;;;7.18;3.72;;;;;;;17.17;80.43;101651.25;5091239;28;20028;-85
2021/06/13 03:28:58;;;;;;;7.53;4.05;;;;;;;17.21;80.17;101654.50;5091228;28;20027;-85
2021/06/13 03:31:24;;;;;;;8.23;3.75;;;;;;;17.22;80.11;101656.22;5090867;28;20027;-85
2021/06/13 03:33:53;;;;;;;7.70;4.03;;;;;;;17.22;79.79;101664.19;5089919;28;20028;-85
2021/06/13 03:36:19;;;;;;;6.40;3.75;;;;;;;17.27;79.09;101655.84;5091324;28;20065;-85
2021/06/13 03:38:46;;;;;;;8.48;3.88;;;;;;;17.23;78.97;101653.44;5094841;28;20027;-85
2021/06/13 03:41:16;;;;;;;5.28;3.65;;;;;;;17.26;79.16;101665.63;5094306;28;20120;-85
2021/06/13 03:43:42;;;;;;;7.88;3.70;;;;;;;17.21;78.91;101657.16;5095183;28;20506;-84
2021/06/13 03:46:08;;;;;;;5.50;3.60;;;;;;;17.26;78.33;101660.34;5093283;28;20032;-85
2021/06/13 03:48:35;;;;;;;8.70;3.85;;;;;;;17.29;77.26;101665.38;5094905;28;20378;-85
2021/06/13 03:51:02;;;;;;;5.93;3.28;;;;;;;17.31;77.85;101673.25;5094311;28;20064;-85
2021/06/13 03:53:27;;;;;;;6.60;3.45;;;;;;;17.33;77.75;101677.47;5094691;28;20102;-85
2021/06/13 03:55:53;;;;;;;5.03;3.05;;;;;;;17.32;77.73;101683.75;5094675;28;20036;-84
2021/06/13 03:58:24;;;;;;;5.00;3.10;;;;;;;17.35;77.16;101682.66;5094729;28;20058;-85
2021/06/13 04:00:52;;;;;;;5.78;3.63;;;;;;;17.34;77.46;101689.78;5094147;28;20031;-85
2021/06/13 04:03:19;;;;;;;6.75;3.30;;;;;;;17.29;77.92;101696.41;5094576;28;20024;-85
2021/06/13 04:05:47;;;;;;;5.47;3.00;;;;;;;17.23;77.30;101695.06;5094377;28;20074;-85
2021/06/13 04:08:14;;;;;;;5.00;3.47;;;;;;;17.25;78.02;101698.44;5093138;28;20020;-85
2021/06/13 04:10:42;;;;;;;4.32;3.40;;;;;;;17.27;77.52;101708.94;5093917;28;20042;-85
2021/06/13 04:13:08;;;;;;;5.18;3.35;;;;;;;17.28;77.46;101710.63;5094279;28;20028;-85
2021/06/13 04:15:33;;;;;;;7.60;3.95;;;;;;;17.38;76.18;101706.34;5094236;28;20489;-85
2021/06/13 04:17:59;;;;;;;7.20;3.22;;;;;;;17.45;76.22;101712.84;5092943;28;20054;-85
2021/06/13 04:20:25;;;;;;;3.92;2.78;;;;;;;17.51;75.46;101715.03;5093784;28;20032;-85
2021/06/13 04:22:51;;;;;;;2.65;2.33;;;;;;;17.55;75.45;101713.00;5094053;28;20024;-85
2021/06/13 04:25:18;;;;;;;4.03;2.78;;;;;;;17.62;75.34;101714.22;5092777;28;20016;-85
2021/06/13 04:27:46;;;;;;;4.07;3.03;;;;;;;17.62;75.13;101720.38;5094063;28;20031;-85
2021/06/13 04:30:12;;;;;;;5.00;3.70;;;;;;;17.64;74.46;101717.59;5093774;28;20081;-85
2021/06/13 04:32:37;;;;;;;6.38;3.35;;;;;;;17.62;74.47;101723.03;5093777;28;20497;-85
2021/06/13 04:35:04;;;;;;;4.30;2.83;;;;;;;17.58;74.78;101728.72;5093863;28;20032;-85
2021/06/13 04:37:29;;;;;;;5.07;3.05;;;;;;;17.59;74.99;101733.03;5093818;28;20445;-85
2021/06/13 04:39:55;;;;;;;7.82;3.25;;;;;;;17.58;74.67;101728.72;5093777;28;20097;-84
2021/06/13 04:42:20;;;;;;;9.43;3.50;;;;;;;17.54;75.33;101729.91;5093535;28;20028;-85
2021/06/13 04:44:46;;;;;;;5.63;3.58;;;;;;;17.59;75.24;101730.38;5093818;28;20402;-85
2021/06/13 04:47:11;;;;;;;6.80;3.15;;;;;;;17.60;74.39;101727.63;5093752;28;20023;-85
2021/06/13 04:49:37;;;;;;;6.10;2.92;;;;;;;17.41;76.16;101736.13;5092552;28;20384;-85
2021/06/13 04:52:06;;;;;;;4.78;2.97;;;;;;;17.62;75.25;101731.00;5093070;28;20032;-85
2021/06/13 04:54:35;;;;;;;3.30;2.67;;;;;;;17.72;75.01;101728.47;5093280;28;20474;-85
2021/06/13 04:57:18;;;;;;;10.18;3.08;;;;;;;17.74;74.71;101729.22;5093220;28;20032;-85
2021/06/13 04:59:43;;;;;;;6.15;3.20;;;;;;;17.74;74.72;101731.88;5093421;28;20473;-85
2021/06/13 05:02:09;;;;;;;5.00;2.53;;;;;;;17.76;74.78;101732.59;5092958;28;20039;-85
2021/06/13 05:04:34;;;;;;;6.90;2.75;;;;;;;17.79;74.39;101734.16;5093323;28;20028;-85
2021/06/13 05:07:03;;;;;;;5.22;3.15;;;;;;;17.83;74.30;101736.50;5093217;28;20486;-85
2021/06/13 05:09:30;;;;;;;3.15;2.58;;;;;;;17.86;74.01;101739.88;5093198;28;20039;-85
2021/06/13 05:11:55;;;;;;;7.30;3.45;;;;;;;17.89;74.20;101739.63;5092948;28;20024;-85
2021/06/13 05:14:21;;;;;;;3.13;2.65;;;;;;;17.87;74.15;101730.94;5093224;28;20020;-85
2021/06/13 05:16:46;;;;;;;4.95;2.88;;;;;;;17.94;74.48;101745.44;5093006;28;20028;-85
2021/06/13 05:19:12;;;;;;;5.28;3.25;;;;;;;17.91;75.03;101740.34;5093111;28;20378;-85
2021/06/13 05:21:37;;;;;;;3.63;3.10;;;;;;;18.06;74.36;101752.44;5091186;28;20121;-84
2021/06/13 05:24:03;;;;;;;5.45;3.30;;;;;;;18.06;74.59;101746.31;5092840;28;20492;-84
2021/06/13 05:26:29;;;;;;;5.60;3.05;;;;;;;18.11;74.23;101737.00;5092711;28;20026;-84
2021/06/13 05:28:55;;;;;;;9.60;3.42;;;;;;;18.21;74.30;101745.94;5092763;28;20058;-84
2021/06/13 05:31:20;;;;;;;4.57;2.58;;;;;;;18.20;73.88;101746.06;5092043;28;20538;-84
2021/06/13 05:33:46;;;;;;;5.55;2.80;;;;;;;18.35;72.91;101754.63;5091390;28;20127;-84
2021/06/13 05:36:12;;;;;;;5.65;3.00;;;;;;;18.35;73.38;101758.13;5092694;28;20103;-84
2021/06/13 05:38:40;;;;;;;4.68;3.42;;;;;;;18.32;74.14;101760.19;5092610;28;20351;-84
2021/06/13 05:41:06;;;;;;;11.57;3.80;;;;;;;18.34;74.56;101764.41;5092573;28;20063;-84
2021/06/13 05:43:31;;;;;;;7.60;3.95;;;;;;;18.34;74.14;101763.56;5092620;28;20105;-85
2021/06/13 05:45:58;;;;;;;10.27;4.65;;;;;;;18.29;74.09;101766.59;5092535;28;20493;-85
2021/06/13 05:48:24;;;;;;;7.43;4.10;;;;;;;18.51;72.39;101757.75;5090113;28;20039;-85
2021/06/13 05:50:49;;;;;;;5.90;4.22;;;;;;;18.54;72.33;101754.00;5090085;28;20032;-84
2021/06/13 05:53:15;;;;;;;6.32;4.10;;;;;;;18.69;71.40;101754.59;5092181;28;20081;-84
2021/06/13 05:55:40;;;;;;;8.25;3.88;;;;;;;18.83;71.04;101759.66;5092300;28;20059;-84
2021/06/13 05:58:06;;;;;;;8.95;4.55;;;;;;;18.92;71.33;101760.75;5092253;28;20020;-84
2021/06/13 06:00:34;;;;;;;5.85;4.25;;;;;;;19.02;71.27;101759.84;5091880;28;20020;-84
2021/06/13 06:02:59;;;;;;;8.70;4.22;;;;;;;19.11;70.84;101762.72;5092269;28;20032;-85
2021/06/13 06:05:25;;;;;;;4.50;3.80;;;;;;;19.21;70.88;101760.97;5092316;28;20027;-84
2021/06/13 06:07:52;;;;;;;8.25;3.50;;;;;;;19.41;70.26;101765.50;5091033;28;20107;-84
2021/06/13 06:10:21;;;;;;;5.90;3.72;;;;;;;19.66;70.50;101773.22;5092416;28;20032;-84
2021/06/13 06:12:46;;;;;;;11.05;4.07;;;;;;;20.17;66.80;101772.41;5091938;28;20024;-85
2021/06/13 06:15:15;;;;;;;4.63;3.00;;;;;;;20.54;64.81;101764.69;5091942;28;20016;-85
2021/06/13 06:17:42;;;;;;;7.47;3.92;;;;;;;21.10;62.52;101771.25;5091752;28;20028;-85
2021/06/13 06:20:09;;;;;;;6.93;3.17;;;;;;;21.81;59.50;101771.94;5092335;28;20020;-84
2021/06/13 06:22:34;;;;;;;4.35;2.50;;;;;;;22.57;55.00;101772.66;5092090;28;20027;-85
2021/06/13 06:24:59;;;;;;;5.47;2.40;;;;;;;23.45;53.51;101766.63;5092245;28;20382;-85
2021/06/13 06:27:25;;;;;;;3.15;1.60;;;;;;;24.05;49.55;101765.91;5091809;28;20473;-85
2021/06/13 06:29:50;;;;;;;2.03;1.45;;;;;;;24.58;47.79;101774.69;5091651;28;20103;-85
2021/06/13 06:32:15;;;;;;;3.10;1.48;;;;;;;24.92;46.92;101771.94;5091970;28;20036;-85
2021/06/13 06:34:41;;;;;;;3.92;1.63;;;;;;;25.32;47.07;101767.63;5091862;28;20111;-85
2021/06/13 06:37:07;;;;;;;3.17;1.40;;;;;;;25.55;46.25;101763.38;5091663;28;20058;-85
2021/06/13 06:39:32;;;;;;;3.10;1.55;;;;;;;25.35;45.91;101761.06;5091847;28;20043;-85
2021/06/13 06:41:57;;;;;;;1.77;1.05;;;;;;;25.68;43.72;101761.03;5090863;28;20020;-85
2021/06/13 06:44:24;;;;;;;2.20;1.40;;;;;;;25.77;43.94;101757.31;5091272;28;20525;-85
2021/06/13 06:46:49;;;;;;;4.18;0.95;;;;;;;26.19;40.18;101758.06;5090478;28;20077;-85
2021/06/13 06:49:15;;;;;;;2.47;1.10;;;;;;;27.00;40.43;101750.56;5091758;28;20020;-85
2021/06/13 06:51:40;;;;;;;1.27;0.85;;;;;;;27.89;36.91;101751.63;5090806;28;20508;-85
2021/06/13 06:54:06;;;;;;;2.25;0.90;;;;;;;28.29;36.57;101746.72;5091933;28;20156;-85
2021/06/13 06:56:31;;;;;;;1.80;0.90;;;;;;;28.43;36.69;101746.91;5091664;28;20081;-85
2021/06/13 06:58:57;;;;;;;1.75;0.80;;;;;;;28.95;35.71;101739.56;5090622;28;20031;-85
2021/06/13 07:01:23;;;;;;;1.33;0.70;;;;;;;29.69;34.33;101741.84;5086951;28;20075;-85
2021/06/13 07:03:48;;;;;;;3.72;0.80;;;;;;;30.39;33.97;101742.69;5091227;28;20103;-85
2021/06/13 07:06:14;;;;;;;1.65;0.65;;;;;;;30.59;32.53;101733.75;5088624;28;20047;-85
2021/06/13 07:08:39;;;;;;;2.85;1.27;;;;;;;31.26;31.27;101747.41;5090230;28;20032;-85
2021/06/13 07:11:05;;;;;;;4.65;0.73;;;;;;;30.80;31.89;101741.69;5090593;28;20038;-85
2021/06/13 07:13:31;;;;;;;3.03;1.00;;;;;;;31.28;32.04;101739.88;5094130;28;20469;-85
2021/06/13 07:15:56;;;;;;;5.10;0.95;;;;;;;31.33;31.51;101737.38;5095021;28;20035;-85
2021/06/13 07:18:22;;;;;;;1.95;0.70;;;;;;;31.97;30.75;101736.66;5078031;28;20029;-85
2021/06/13 07:20:47;;;;;;;2.15;0.73;;;;;;;32.36;30.29;101734.81;5094188;28;20031;-85
2021/06/13 07:23:12;;;;;;;2.08;0.85;;;;;;;33.02;29.32;101735.50;5094681;28;20103;-85
2021/06/13 07:25:38;;;;;;;3.78;1.10;;;;;;;32.75;28.81;101738.41;5094571;28;20108;-85
2021/06/13 07:28:05;;;;;;;4.03;1.27;;;;;;;33.31;29.15;101735.88;5094323;28;20122;-85
2021/06/13 07:30:32;;;;;;;1.95;0.60;;;;;;;33.79;27.66;101740.66;5095019;28;20414;-83
2021/06/13 07:32:57;;;;;;;2.33;0.68;;;;;;;34.13;28.64;101735.66;5093941;28;20124;-83
2021/06/13 07:35:22;;;;;;;3.35;0.60;;;;;;;33.77;27.98;101731.91;5085733;28;20501;-85
2021/06/13 07:37:48;;;;;;;3.10;0.80;;;;;;;34.43;26.84;101734.84;5092179;28;20031;-85
2021/06/13 07:40:15;;;;;;;4.78;0.60;;;;;;;34.65;26.79;101733.25;5093572;28;20024;-86
2021/06/13 07:42:41;;;;;;;1.75;0.65;;;;;;;35.13;26.79;101721.41;5090120;28;20020;-86
2021/06/13 07:45:09;;;;;;;4.10;1.50;;;;;;;35.14;26.91;101723.03;5087549;28;20496;-85
2021/06/13 07:47:35;;;;;;;4.88;0.63;;;;;;;35.50;26.39;101729.34;5093699;28;20397;-85
2021/06/13 07:50:01;;;;;;;3.08;0.80;;;;;;;35.78;26.26;101732.44;5093790;28;20031;-86
2021/06/13 07:52:27;;;;;;;5.53;0.98;;;;;;;35.93;25.55;101736.31;5094539;28;20379;-84
2021/06/13 07:54:53;;;;;;;3.85;0.80;;;;;;;35.49;26.42;101735.91;5094790;28;20028;-84
2021/06/13 07:57:18;;;;;;;4.03;1.45;;;;;;;36.03;26.16;101726.66;5094049;28;20028;-85
2021/06/13 07:59:43;;;;;;;2.15;0.50;;;;;;;36.03;25.80;101729.41;5094762;28;20012;-84
2021/06/13 08:02:11;;;;;;;3.10;1.05;;;;;;;36.81;24.03;101724.31;5095193;28;20077;-84
2021/06/13 08:04:38;;;;;;;6.00;0.80;;;;;;;35.99;25.53;101730.97;5094882;28;20024;-84
2021/06/13 08:07:04;;;;;;;1.38;0.50;;;;;;;37.13;24.80;101740.16;5094299;28;20038;-84
2021/06/13 08:09:29;;;;;;;3.40;0.70;;;;;;;37.85;23.43;101742.03;5094433;28;20114;-84
2021/06/13 08:11:54;;;;;;;3.97;0.85;;;;;;;37.59;23.80;101738.09;5088896;28;20028;-84
2021/06/13 08:14:20;;;;;;;2.25;0.80;;;;;;;37.03;23.24;101744.38;5073875;28;20097;-84
2021/06/13 08:16:45;;;;;;;2.65;0.80;;;;;;;37.18;23.20;101743.00;5092190;28;20036;-84
2021/06/13 08:19:11;;;;;;;5.82;0.95;;;;;;;37.40;23.25;101738.38;5093699;28;20435;-83
2021/06/13 08:21:37;;;;;;;4.93;1.13;;;;;;;36.98;23.65;101738.00;5093641;28;20028;-84
2021/06/13 08:24:04;;;;;;;2.25;0.80;;;;;;;37.51;23.50;101728.41;5093911;28;20020;-84
2021/06/13 08:26:30;;;;;;;4.40;1.25;;;;;;;37.26;23.25;101726.97;5083824;28;20024;-84
2021/06/13 08:28:56;;;;;;;2.65;0.68;;;;;;;37.61;23.12;101733.25;5078278;28;20029;-84
2021/06/13 08:31:22;;;;;;;1.55;0.65;;;;;;;37.77;22.74;101728.78;5086106;28;20024;-83
2021/06/13 08:33:48;;;;;;;2.53;0.90;;;;;;;37.66;23.65;101728.66;5079125;28;20111;-84
2021/06/13 08:36:14;;;;;;;4.55;1.20;;;;;;;37.50;24.04;101721.25;5087766;28;20032;-84
2021/06/13 08:38:40;;;;;;;3.85;0.90;;;;;;;38.00;23.24;101719.47;5093074;28;20073;-85
2021/06/13 08:41:05;;;;;;;6.45;1.58;;;;;;;38.12;23.88;101720.19;5092707;28;20398;-84
2021/06/13 08:43:30;;;;;;;3.00;0.93;;;;;;;38.71;22.10;101713.06;5092761;28;20052;-85
2021/06/13 08:45:58;;;;;;;5.28;0.80;;;;;;;38.83;22.71;101713.72;5092150;28;20032;-85
2021/06/13 08:48:31;;;;;;;2.58;1.10;;;;;;;39.16;21.44;101707.13;5092523;28;20120;-85
2021/06/13 08:51:01;;;;;;;3.03;0.90;;;;;;;38.04;22.77;101712.38;5093178;28;20032;-84
2021/06/13 08:53:27;;;;;;;4.30;0.98;;;;;;;38.66;22.67;101702.88;5092226;28;20065;-84
2021/06/13 08:55:53;;;;;;;2.95;0.95;;;;;;;39.35;21.41;101699.25;5092850;28;20111;-84
2021/06/13 08:58:19;;;;;;;2.28;0.90;;;;;;;39.55;21.41;101698.56;5092144;28;20036;-84
2021/06/13 09:00:46;;;;;;;4.40;0.85;;;;;;;39.19;22.13;101705.75;5092549;28;20024;-84
2021/06/13 09:03:13;;;;;;;5.05;1.15;;;;;;;38.82;21.63;101698.34;5083859;28;20020;-84
2021/06/13 09:05:38;;;;;;;4.20;1.27;;;;;;;38.68;22.58;101695.22;5087536;28;20031;-85
2021/06/13 09:08:09;;;;;;;2.53;1.00;;;;;;;39.21;21.90;101687.09;5085601;28;20028;-85
2021/06/13 09:10:36;;;;;;;3.72;1.17;;;;;;;39.60;21.11;101684.03;5090694;28;20032;-84
2021/06/13 09:13:11;;;;;;;2.63;0.90;;;;;;;38.42;22.10;101691.41;5092884;28;20110;-85
2021/06/13 09:15:41;;;;;;;5.45;1.48;;;;;;;39.46;21.55;101678.19;5093276;28;20047;-85
2021/06/13 09:18:43;;;;;;;9.30;1.08;;;;;;;39.37;22.30;101683.31;5092370;28;20028;-85
2021/06/13 09:21:09;;;;;;;4.78;1.85;;;;;;;39.53;21.52;101683.44;5093023;28;20126;-85
2021/06/13 09:23:38;;;;;;;3.90;1.20;;;;;;;39.84;21.64;101676.13;5092504;28;20020;-85
2021/06/13 09:26:17;;;;;;;3.80;1.05;;;;;;;39.63;22.26;101681.53;5092461;28;20154;-85
2021/06/13 09:28:49;;;;;;;4.82;1.20;;;;;;;39.87;22.39;101675.59;5092951;28;20020;-85
2021/06/13 09:31:20;;;;;;;2.38;0.98;;;;;;;40.34;21.23;101671.84;5092254;28;20173;-85
2021/06/13 09:33:47;;;;;;;2.30;1.00;;;;;;;40.82;20.89;101668.81;5092312;28;20028;-85
2021/06/13 09:36:18;;;;;;;3.17;1.10;;;;;;;40.41;21.68;101674.34;5079448;28;20033;-85
2021/06/13 09:38:46;;;;;;;3.75;1.30;;;;;;;40.32;21.94;101664.97;5087519;28;20023;-85
2021/06/13 09:41:17;;;;;;;6.75;1.77;;;;;;;40.72;21.10;101666.06;5091116;28;20043;-84
2021/06/13 09:43:47;;;;;;;3.97;1.65;;;;;;;41.21;21.46;101669.03;5091867;28;20020;-84
2021/06/13 09:46:29;;;;;;;7.28;1.65;;;;;;;41.56;20.66;101667.25;5092114;28;20028;-84
2021/06/13 09:48:59;;;;;;;3.65;1.40;;;;;;;41.73;20.00;101668.84;5091930;28;20304;-84
2021/06/13 09:51:32;;;;;;;6.60;1.23;;;;;;;42.16;19.88;101671.91;5091823;28;20083;-84
2021/06/13 09:53:59;;;;;;;4.68;1.17;;;;;;;40.89;20.65;101661.13;5092144;28;20034;-84
2021/06/13 09:56:28;;;;;;;8.52;1.38;;;;;;;41.08;21.58;101655.84;5091976;28;20024;-80
2021/06/13 09:58:58;;;;;;;3.58;1.20;;;;;;;41.41;20.83;101651.63;5092205;28;20034;-81
2021/06/13 10:01:33;;;;;;;4.45;0.98;;;;;;;40.62;21.29;101656.72;5091923;28;20024;-80
2021/06/13 10:04:00;;;;;;;2.67;1.08;;;;;;;40.52;20.72;101655.91;5091845;28;20495;-80
2021/06/13 10:06:30;;;;;;;2.55;1.20;;;;;;;40.62;21.33;101661.38;5091591;28;20020;-80
2021/06/13 10:08:57;;;;;;;3.83;1.35;;;;;;;39.60;21.82;101646.38;5091530;28;20024;-80
2021/06/13 10:11:23;;;;;;;3.03;1.30;;;;;;;40.02;20.99;101644.56;5091599;28;20023;-81
2021/06/13 10:15:21;;;;;;;3.30;1.20;;;;;;;40.69;21.84;101650.13;5121977;27;20457;-81
2021/06/13 10:17:47;;;;;;;3.80;1.10;;;;;;;40.19;20.71;101636.06;5071778;28;20111;-82
2021/06/13 10:20:26;;;;;;;5.20;2.80;;;;;;;39.98;21.85;101638.78;5085221;28;20101;-79
2021/06/13 10:22:51;;;;;;;4.20;1.40;;;;;;;39.00;22.52;101632.03;5051997;28;20029;-79
2021/06/13 10:25:17;;;;;;;11.55;4.97;;;;;;;39.89;23.35;101637.66;5060008;28;20043;-81
2021/06/13 10:27:42;;;;;;;4.63;1.67;;;;;;;40.42;22.34;101634.72;5053167;28;20025;-79
2021/06/13 10:30:08;;;;;;;7.43;2.55;;;;;;;38.93;22.30;101631.44;5053110;28;20549;-79
2021/06/13 10:32:34;;;;;;;25.80;10.90;;;;;;;40.53;23.06;101635.53;5067123;28;20036;-79
2021/06/13 10:35:05;;;;;;;3.35;1.45;;;;;;;40.61;21.16;101638.56;5064073;28;20028;-79
2021/06/13 10:37:31;;;;;;;5.10;1.67;;;;;;;39.61;22.34;101631.50;5058341;28;20479;-80
2021/06/13 10:39:56;;;;;;;5.00;2.00;;;;;;;40.53;21.76;101632.78;5048229;28;20029;-80
2021/06/13 10:42:22;;;;;;;3.50;1.60;;;;;;;40.89;22.40;101636.31;5049721;28;20475;-79
2021/06/13 10:44:49;;;;;;;9.18;1.50;;;;;;;40.49;22.18;101632.50;5048176;28;20029;-79
2021/06/13 10:47:16;;;;;;;10.50;1.98;;;;;;;40.62;21.21;101629.19;5057161;28;20057;-81
2021/06/13 10:50:06;;;;;;;13.63;2.15;;;;;;;41.37;21.34;101631.25;5063016;28;20025;-81
2021/06/13 10:52:32;;;;;;;3.30;1.50;;;;;;;40.73;21.02;101634.69;5057889;28;20091;-80
2021/06/13 10:55:00;;;;;;;5.50;2.00;;;;;;;41.50;21.07;101638.06;5064289;28;20382;-80
2021/06/13 10:57:28;;;;;;;3.72;1.35;;;;;;;41.47;21.10;101629.53;5068426;28;20032;-80
2021/06/13 10:59:59;;;;;;;5.28;1.52;;;;;;;41.92;20.82;101627.63;5063100;28;20075;-80
2021/06/13 11:02:27;;;;;;;4.50;1.20;;;;;;;41.61;21.73;101622.31;5049707;28;20030;-81
2021/06/13 11:05:04;;;;;;;3.58;1.67;;;;;;;42.12;20.36;101624.75;5050599;28;20029;-81
2021/06/13 11:07:35;;;;;;;3.95;1.40;;;;;;;41.34;20.64;101623.53;5035944;28;20056;-81
2021/06/13 11:10:16;;;;;;;5.32;1.67;;;;;;;40.75;22.60;101616.00;5061212;28;20022;-81
2021/06/13 11:12:59;;;;;;;2.90;1.30;;;;;;;41.44;21.81;101616.34;5047549;28;20083;-80
2021/06/13 11:15:35;;;;;;;16.60;9.25;;;;;;;42.09;20.72;101617.06;5046670;28;20391;-80
2021/06/13 11:18:04;;;;;;;59.10;29.13;;;;;;;41.24;21.98;101612.56;5049139;28;20021;-81
2021/06/13 11:22:59;;;;;;;4.53;1.95;;;;;;;41.01;22.10;101602.97;5048701;28;20029;-80
2021/06/13 11:25:26;;;;;;;9.82;3.75;;;;;;;41.16;21.46;101611.19;5041135;28;20033;-80
2021/06/13 11:28:13;;;;;;;8.05;2.95;;;;;;;41.79;21.09;101607.06;5016665;28;20112;-80
2021/06/13 11:30:49;;;;;;;4.63;1.27;;;;;;;41.18;21.73;101608.19;5039856;28;20033;-81
2021/06/13 11:33:38;;;;;;;5.40;1.20;;;;;;;41.13;21.48;101608.97;5049561;28;20047;-80